Time;durP1;ratioP1;P1;durP2;ratioP2;P2;SDS_P1;SDS_P2;PMS_P1;PMS_P2;Temp;Humidity;BMP_temperature;BMP_pressure;BME280_temperature;BME280_humidity;BME280_pressure;Samples;Min_cycle;Max_cycle;Signal;HPM_P1;HPM_P2
2021/11/11 00:02:48;;;;;;;13.50;6.20;;;;;;;1.90;96.06;101715.83;103095;1321;71984;-82
2021/11/11 00:06:16;;;;;;;9.80;5.90;;;;;;;1.88;96.04;101720.55;103006;1323;72908;-83
2021/11/11 00:09:30;;;;;;;14.30;6.30;;;;;;;1.85;96.39;101716.16;103192;1319;63438;-80
2021/11/11 00:12:56;;;;;;;10.70;6.10;;;;;;;1.84;96.33;101707.34;103303;1318;62155;-83
2021/11/11 00:15:47;;;;;;;;;;;;;;;1.79;96.84;101704.65;103371;1318;75758;-81
2021/11/11 00:18:50;;;;;;;10.40;6.30;;;;;;;1.75;97.15;101704.73;103426;1318;72743;-83
2021/11/11 00:22:12;;;;;;;12.60;6.80;;;;;;;1.72;96.88;101703.55;103281;1318;74567;-80
2021/11/11 00:25:15;;;;;;;15.10;6.90;;;;;;;1.69;97.20;101705.79;103448;1322;60689;-82
2021/11/11 00:28:41;;;;;;;;;;;;;;;;;;;;;
2021/11/11 00:32:10;;;;;;;;;;;;;;;;;;;;;
2021/11/11 00:35:39;;;;;;;13.20;5.60;;;;;;;1.68;97.41;101701.67;102981;1318;71761;-79
2021/11/11 00:39:07;;;;;;;10.60;6.20;;;;;;;1.66;97.37;101706.70;102985;1318;73410;-81
2021/11/11 00:42:24;;;;;;;11.20;6.50;;;;;;;1.62;97.25;101710.23;102625;1318;62072;-79
2021/11/11 00:45:49;;;;;;;14.90;7.00;;;;;;;1.58;97.01;101700.02;102556;1319;62737;-79
2021/11/11 00:49:06;;;;;;;;;;;;;;;;;;;;;
2021/11/11 00:52:15;;;;;;;15.20;7.00;;;;;;;1.51;97.33;101681.06;103163;1322;71518;-82
2021/11/11 00:55:16;;;;;;;;;;;;;;;;;;;;;
2021/11/11 00:58:48;;;;;;;13.20;6.60;;;;;;;1.52;97.76;101679.43;103249;1318;60411;-83
2021/11/11 01:01:52;;;;;;;14.70;6.70;;;;;;;1.53;98.33;101673.62;103353;1320;60493;-79
2021/11/11 01:05:20;;;;;;;12.30;6.90;;;;;;;1.53;98.31;101668.94;103170;1318;75144;-79
2021/11/11 01:08:33;;;;;;;14.70;7.50;;;;;;;1.54;98.68;101669.75;102945;1318;72469;-81
2021/11/11 01:11:46;;;;;;;15.40;7.50;;;;;;;1.58;98.63;101672.81;103381;1319;74377;-79
2021/11/11 01:15:08;;;;;;;;;;;;;;;;;;;;;
2021/11/11 01:18:44;;;;;;;16.20;8.60;;;;;;;1.72;98.93;101662.02;103181;1316;59856;-81
2021/11/11 01:21:56;;;;;;;;;;;;;;;;;;;;;
2021/11/11 01:25:31;;;;;;;8.60;5.60;;;;;;;1.88;98.43;101667.52;103306;1319;71509;-83
2021/11/11 01:28:42;;;;;;;13.50;6.10;;;;;;;1.95;98.07;101671.27;103285;1317;72486;-80
2021/11/11 01:31:59;;;;;;;12.10;7.40;;;;;;;2.02;98.38;101666.43;103165;1319;61275;-84
2021/11/11 01:35:22;;;;;;;15.50;7.30;;;;;;;2.11;97.77;101672.41;103048;1321;61931;-81
2021/11/11 01:38:50;;;;;;;15.30;8.00;;;;;;;2.14;97.43;101669.02;103394;1319;74448;-84
2021/11/11 01:42:07;;;;;;;14.10;6.60;;;;;;;2.19;97.47;101659.95;103213;1319;72416;-79
2021/11/11 01:45:29;;;;;;;12.80;7.30;;;;;;;2.28;97.71;101651.02;103157;1318;72869;-79
2021/11/11 01:48:57;;;;;;;14.90;6.40;;;;;;;2.37;97.87;101644.02;103064;1317;60667;-79
2021/11/11 01:52:25;;;;;;;13.60;6.00;;;;;;;2.44;97.51;101632.89;103080;1318;60681;-81
2021/11/11 01:55:46;;;;;;;13.60;6.90;;;;;;;2.49;97.18;101626.67;102936;1319;76812;-80
2021/11/11 01:59:23;;;;;;;11.30;6.70;;;;;;;2.53;96.82;101629.72;103129;1320;71478;-83
2021/11/11 02:02:51;;;;;;;12.70;6.60;;;;;;;2.58;96.84;101619.61;103056;1318;72947;-80
2021/11/11 02:06:08;;;;;;;10.10;6.00;;;;;;;2.57;96.20;101618.13;103070;1318;59834;-81
2021/11/11 02:09:38;;;;;;;13.50;6.50;;;;;;;2.64;96.40;101633.89;103275;1317;60583;-81
2021/11/11 02:12:53;;;;;;;;;;;;;;;;;;;;;
2021/11/11 02:16:16;;;;;;;13.80;6.60;;;;;;;2.74;96.74;101635.14;103208;1313;71643;-82
2021/11/11 02:19:45;;;;;;;12.50;6.80;;;;;;;2.78;96.43;101628.60;103268;1317;73960;-80
2021/11/11 02:23:11;;;;;;;;;;;;;;;;;;;;;
2021/11/11 02:26:09;;;;;;;;;;;;;;;;;;;;;
2021/11/11 02:29:38;;;;;;;13.90;7.30;;;;;;;2.83;96.09;101617.09;103287;1318;75436;-81
2021/11/11 02:32:55;;;;;;;17.90;7.20;;;;;;;2.85;96.29;101624.45;103146;1318;71878;-82
2021/11/11 02:36:22;;;;;;;12.30;7.00;;;;;;;2.89;96.25;101623.52;103173;1318;74128;-81
2021/11/11 02:39:31;;;;;;;13.60;6.70;;;;;;;2.92;96.44;101623.30;103395;1318;60613;-80
2021/11/11 02:42:41;;;;;;;13.20;6.20;;;;;;;2.94;96.29;101629.80;103201;1318;61111;-80
2021/11/11 02:50:01;;;;;;;;;;;;;;;;;;;;;
2021/11/11 02:52:48;;;;;;;16.00;7.70;;;;;;;3.04;95.98;101630.54;103050;1318;75647;-80
2021/11/11 02:55:59;;;;;;;14.00;7.10;;;;;;;3.07;95.85;101628.57;102943;1318;61425;-79
2021/11/11 02:59:11;;;;;;;12.90;7.10;;;;;;;3.12;95.91;101633.17;103257;1318;60636;-82
2021/11/11 03:02:41;;;;;;;11.50;7.10;;;;;;;3.19;96.04;101635.30;103272;1318;74349;-82
2021/11/11 03:06:14;;;;;;;13.90;7.00;;;;;;;3.24;95.51;101632.64;102871;1318;73113;-80
2021/11/11 03:09:28;;;;;;;14.40;7.10;;;;;;;3.32;95.92;101641.05;103077;1320;73172;-82
2021/11/11 03:12:46;;;;;;;13.20;6.90;;;;;;;3.36;95.72;101642.88;103261;1317;60899;-82
2021/11/11 03:15:42;;;;;;;;;;;;;;;;;;;;;
2021/11/11 03:19:18;;;;;;;11.30;7.50;;;;;;;3.45;95.76;101651.69;103205;1318;72798;-82
2021/11/11 03:22:48;;;;;;;14.70;7.40;;;;;;;3.50;95.23;101651.20;103322;1318;72672;-85
2021/11/11 03:25:50;;;;;;;;;;;;;;;;;;;;;
2021/11/11 03:29:28;;;;;;;22.00;7.10;;;;;;;3.55;95.01;101646.48;103190;1318;62045;-80
2021/11/11 03:32:59;;;;;;;19.00;7.20;;;;;;;3.63;94.95;101652.57;103211;1318;60674;-83
2021/11/11 03:36:18;;;;;;;16.00;7.30;;;;;;;3.66;94.95;101652.16;103355;1318;73243;-83
2021/11/11 03:39:17;;;;;;;12.70;6.90;;;;;;;3.67;94.78;101652.62;102604;1318;71646;-79
2021/11/11 03:42:49;;;;;;;14.10;7.50;;;;;;;3.69;94.68;101657.93;103247;1318;73028;-79
2021/11/11 03:46:29;;;;;;;13.50;7.20;;;;;;;3.73;94.49;101651.71;103423;1318;61754;-81
2021/11/11 03:49:54;;;;;;;;;;;;;;;;;;;;;
2021/11/11 03:53:23;;;;;;;16.20;7.50;;;;;;;3.79;94.08;101653.74;103211;1318;75323;-81
2021/11/11 03:56:30;;;;;;;;;;;;;;;;;;;;;
2021/11/11 03:59:56;;;;;;;15.80;7.60;;;;;;;3.85;94.15;101662.98;103137;1318;73929;-79
2021/11/11 04:03:01;;;;;;;11.10;6.40;;;;;;;3.84;93.90;101664.42;103192;1318;60622;-80
2021/11/11 04:06:35;;;;;;;16.00;8.20;;;;;;;3.83;93.93;101667.09;103251;1318;63005;-83
2021/11/11 04:13:42;;;;;;;;;;;;;;;;;;;;;
2021/11/11 04:16:59;;;;;;;;;;;;;;;;;;;;;
2021/11/11 04:20:31;;;;;;;14.60;7.30;;;;;;;3.86;93.98;101657.80;103190;1318;61879;-82
2021/11/11 04:23:52;;;;;;;15.00;7.60;;;;;;;3.90;93.94;101663.30;103251;1318;61854;-80
2021/11/11 04:34:11;;;;;;;12.70;7.00;;;;;;;3.88;93.96;101656.41;103312;1318;73795;-81
2021/11/11 04:37:37;;;;;;;16.50;9.20;;;;;;;3.86;94.38;101653.75;103110;1318;62561;-78
2021/11/11 05:00:55;;;;;;;17.80;8.80;;;;;;;3.81;95.12;101665.52;103233;1318;71833;-81
2021/11/11 05:03:49;;;;;;;;;;;;;;;;;;;;;
2021/11/11 05:07:10;;;;;;;17.30;8.90;;;;;;;3.90;95.21;101664.93;103149;1318;74049;-80
2021/11/11 05:10:38;;;;;;;18.00;9.20;;;;;;;3.92;95.57;101661.63;103119;1318;62354;-80
2021/11/11 05:14:05;;;;;;;16.00;8.30;;;;;;;3.92;95.17;101663.73;103443;1318;60602;-79
2021/11/11 05:17:24;;;;;;;;;;;;;;;;;;;;;
2021/11/11 05:21:02;;;;;;;16.20;9.20;;;;;;;3.93;95.47;101652.27;103163;1318;72924;-80
2021/11/11 05:27:51;;;;;;;15.10;8.90;;;;;;;3.98;95.43;101655.54;102948;1314;62100;-80
2021/11/11 05:31:36;;;;;;;;;;;;;;;;;;;;;
2021/11/11 05:34:29;;;;;;;;;;;;;;;;;;;;;
2021/11/11 05:37:41;;;;;;;14.80;7.60;;;;;;;4.03;95.62;101646.95;103326;1318;71730;-81
2021/11/11 05:41:17;;;;;;;15.40;7.70;;;;;;;4.04;95.64;101643.90;103375;1318;74028;-84
2021/11/11 05:44:31;;;;;;;;;;;;;;;;;;;;;
2021/11/11 05:48:10;;;;;;;;;;;;;;;;;;;;;
2021/11/11 05:52:06;;;;;;;17.30;9.30;;;;;;;4.10;95.40;101627.40;103477;1318;72919;-80
2021/11/11 05:55:27;;;;;;;;;;;;;;;;;;;;;
2021/11/11 05:58:48;;;;;;;19.60;9.10;;;;;;;4.14;95.55;101623.11;103166;1318;73516;-81
2021/11/11 06:02:16;;;;;;;15.20;8.30;;;;;;;4.15;95.62;101628.14;103383;1318;60632;-80
2021/11/11 06:05:29;;;;;;;16.30;8.20;;;;;;;4.17;95.82;101634.63;103215;1318;60475;-81
2021/11/11 06:08:56;;;;;;;14.60;7.70;;;;;;;4.16;95.51;101639.77;103151;1318;74244;-80
2021/11/11 06:12:15;;;;;;;17.70;9.60;;;;;;;4.21;95.99;101647.30;103231;1318;72788;-81
2021/11/11 06:15:46;;;;;;;19.80;9.70;;;;;;;4.27;96.03;101650.86;103429;1318;71998;-83
2021/11/11 06:18:20;;;;;;;14.60;8.60;;;;;;;4.35;96.02;101657.69;103482;1318;63247;-81
2021/11/11 06:21:26;;;;;;;17.80;8.80;;;;;;;4.39;95.89;101658.56;98869;1318;6569939;-81
2021/11/11 06:24:23;;;;;;;18.60;9.40;;;;;;;4.44;95.63;101667.19;103232;1313;72635;-79
2021/11/11 06:27:17;;;;;;;20.30;9.30;;;;;;;4.46;95.79;101666.50;103343;1318;74127;-78
2021/11/11 06:30:43;;;;;;;27.00;10.00;;;;;;;4.48;95.99;101669.83;102254;1318;60630;-77
2021/11/11 06:33:15;;;;;;;19.90;9.80;;;;;;;4.52;96.02;101681.65;102623;1318;60623;-76
2021/11/11 06:36:37;;;;;;;;;;;;;;;;;;;;;
2021/11/11 06:39:13;;;;;;;17.60;9.00;;;;;;;4.57;95.60;101693.53;102434;1318;72461;-77
2021/11/11 06:42:07;;;;;;;;;;;;;;;;;;;;;
2021/11/11 06:44:59;;;;;;;17.40;9.00;;;;;;;4.58;95.16;101704.90;102424;1318;60631;-77
2021/11/11 06:48:17;;;;;;;14.90;9.40;;;;;;;4.54;94.80;101700.94;102402;1317;60671;-78
2021/11/11 06:51:47;;;;;;;19.00;9.70;;;;;;;4.51;94.72;101702.56;102413;1318;75324;-80
2021/11/11 06:54:54;;;;;;;16.50;8.90;;;;;;;4.49;94.51;101702.89;102742;1315;73653;-79
2021/11/11 06:58:03;;;;;;;15.40;8.80;;;;;;;4.47;94.53;101709.87;102444;1318;74019;-78
2021/11/11 07:01:03;;;;;;;;;;;;;;;;;;;;;
2021/11/11 07:03:41;;;;;;;14.00;7.60;;;;;;;4.49;94.64;101716.36;102409;1318;60754;-76
2021/11/11 07:06:36;;;;;;;13.20;7.40;;;;;;;4.52;94.65;101711.78;102633;1318;75629;-78
2021/11/11 07:09:49;;;;;;;17.40;8.50;;;;;;;4.57;94.56;101713.41;102612;1318;71670;-77
2021/11/11 07:12:35;;;;;;;16.70;8.70;;;;;;;4.60;94.25;101712.97;102532;1318;74334;-80
2021/11/11 07:15:35;;;;;;;17.40;8.90;;;;;;;4.64;94.21;101715.33;102356;1318;63281;-78
2021/11/11 07:18:38;;;;;;;;;;;;;;;;;;;;;
2021/11/11 07:21:28;;;;;;;16.50;8.60;;;;;;;4.73;94.15;101717.48;102395;1318;74548;-80
2021/11/11 07:24:26;;;;;;;18.50;8.90;;;;;;;4.76;94.03;101715.30;102619;1318;70974;-77
2021/11/11 07:27:34;;;;;;;13.50;7.10;;;;;;;4.81;93.78;101715.61;102478;1318;74028;-80
2021/11/11 07:30:51;;;;;;;14.50;8.40;;;;;;;4.86;93.86;101714.77;102089;1318;60752;-77
2021/11/11 07:33:59;;;;;;;16.30;8.30;;;;;;;4.90;93.80;101717.96;102297;1318;60611;-79
2021/11/11 07:36:45;;;;;;;12.70;7.80;;;;;;;4.93;93.39;101713.02;102539;1318;75548;-76
2021/11/11 07:39:26;;;;;;;;;;;;;;;;;;;;;
2021/11/11 07:42:25;;;;;;;12.40;7.60;;;;;;;5.01;93.14;101715.22;102297;1318;73965;-77
2021/11/11 07:45:01;;;;;;;11.70;6.70;;;;;;;5.06;92.84;101718.58;102544;1319;60687;-80
2021/11/11 07:48:18;;;;;;;14.80;7.70;;;;;;;5.10;93.05;101718.80;102587;1313;60601;-77
2021/11/11 07:50:59;;;;;;;;;;;;;;;;;;;;;
2021/11/11 07:53:33;;;;;;;10.00;6.10;;;;;;;5.19;93.00;101720.61;102452;1322;72600;-77
2021/11/11 07:56:44;;;;;;;13.00;7.00;;;;;;;5.23;93.05;101717.96;102215;1320;73557;-77
2021/11/11 07:59:41;;;;;;;;;;;;;;;;;;;;;
2021/11/11 08:02:40;;;;;;;14.60;7.20;;;;;;;5.38;92.83;101724.08;102449;1318;62164;-77
2021/11/11 08:05:34;;;;;;;;;;;;;;;;;;;;;
2021/11/11 08:08:26;;;;;;;;;;;;;;;5.52;92.70;101722.99;102669;1318;70760;-76
2021/11/11 08:10:57;;;;;;;11.30;6.80;;;;;;;5.58;92.42;101719.89;102381;1322;72992;-78
2021/11/11 08:13:24;;;;;;;15.20;8.60;;;;;;;5.64;92.28;101721.40;102504;1316;62216;-77
2021/11/11 08:16:19;;;;;;;12.90;7.30;;;;;;;5.70;92.31;101722.84;102806;1319;60787;-75
2021/11/11 08:18:53;;;;;;;13.90;7.40;;;;;;;5.79;92.36;101721.97;102427;1318;74998;-77
2021/11/11 08:22:12;;;;;;;9.30;5.90;;;;;;;5.87;92.20;101722.95;102733;1318;71399;-79
2021/11/11 08:24:53;;;;;;;13.10;7.00;;;;;;;5.99;91.88;101723.48;102085;1318;72899;-79
2021/11/11 08:28:03;;;;;;;15.10;6.80;;;;;;;6.08;91.65;101726.23;102338;1318;61788;-77
2021/11/11 08:31:31;;;;;;;9.70;7.00;;;;;;;6.14;91.53;101722.83;102789;1319;61520;-78
2021/11/11 08:34:38;;;;;;;12.20;6.90;;;;;;;6.21;91.27;101724.68;102537;1318;75188;-78
2021/11/11 08:37:28;;;;;;;10.10;5.60;;;;;;;6.29;91.26;101727.59;102459;1318;71753;-76
2021/11/11 08:40:20;;;;;;;10.20;5.40;;;;;;;6.36;91.26;101722.83;102311;1318;74105;-77
2021/11/11 08:43:35;;;;;;;14.00;6.30;;;;;;;6.44;90.91;101723.23;102472;1318;62203;-77
2021/11/11 08:46:15;;;;;;;10.60;5.80;;;;;;;6.55;91.25;101715.30;102465;1318;60751;-77
2021/11/11 08:48:48;;;;;;;8.70;5.80;;;;;;;6.63;90.84;101713.48;102631;1319;75269;-80
2021/11/11 08:51:37;;;;;;;;;;;;;;;;;;;;;
2021/11/11 08:54:29;;;;;;;12.50;6.60;;;;;;;6.73;90.48;101707.35;102484;1318;76097;-77
2021/11/11 08:56:58;;;;;;;11.50;6.30;;;;;;;6.81;90.46;101710.42;102404;1318;62289;-76
2021/11/11 09:00:15;;;;;;;13.80;6.10;;;;;;;6.88;90.31;101704.89;102331;1318;60583;-76
2021/11/11 09:03:15;;;;;;;;;;;;;;;;;;;;;
2021/11/11 09:06:10;;;;;;;9.90;5.80;;;;;;;7.04;89.48;101706.95;102514;1318;70740;-77
2021/11/11 09:08:52;;;;;;;;;;;;;;;;;;;;;
2021/11/11 09:12:04;;;;;;;10.70;5.90;;;;;;;7.16;89.44;101710.34;102385;1319;60535;-77
2021/11/11 09:14:40;;;;;;;11.20;5.80;;;;;;;7.21;88.74;101712.06;102323;1318;60617;-76
2021/11/11 09:17:49;;;;;;;;;;;;;;;;;;;;;
2021/11/11 09:21:20;;;;;;;10.10;6.00;;;;;;;7.32;88.25;101716.71;102523;1318;70540;-78
2021/11/11 09:24:17;;;;;;;11.80;6.30;;;;;;;7.35;88.01;101713.20;102469;1317;73084;-78
2021/11/11 09:27:24;;;;;;;;;;;;;;;;;;;;;
2021/11/11 09:30:24;;;;;;;12.60;6.80;;;;;;;7.26;87.50;101713.88;102555;1319;60891;-78
2021/11/11 09:33:25;;;;;;;12.60;6.00;;;;;;;7.25;87.55;101726.35;102500;1318;74182;-79
2021/11/11 09:36:10;;;;;;;;;;;;;;;;;;;;;
2021/11/11 09:38:50;;;;;;;;;;;;;;;;;;;;;
2021/11/11 09:42:01;;;;;;;11.90;6.50;;;;;;;7.24;87.28;101728.73;102584;1318;60527;-79
2021/11/11 09:45:01;;;;;;;;;;;;;;;;;;;;;
2021/11/11 09:47:51;;;;;;;9.50;5.70;;;;;;;7.27;87.13;101726.84;102429;1318;75703;-77
2021/11/11 09:50:30;;;;;;;14.20;7.10;;;;;;;7.36;87.48;101729.45;102537;1318;72874;-77
2021/11/11 09:53:30;;;;;;;10.00;5.90;;;;;;;7.46;87.59;101729.16;102577;1318;72975;-77
2021/11/11 09:59:40;;;;;;;;;;;;;;;;;;;;;
2021/11/11 10:02:44;;;;;;;10.70;6.50;;;;;;;7.75;86.79;101733.36;102625;1318;74349;-77
2021/11/11 10:06:07;;;;;;;;;;;;;;;;;;;;;
2021/11/11 10:09:35;;;;;;;10.90;6.70;;;;;;;7.95;86.28;101738.95;102188;1319;73165;-80
2021/11/11 10:12:51;;;;;;;9.50;5.70;;;;;;;8.08;85.94;101740.44;102538;1318;63498;-78
2021/11/11 10:15:36;;;;;;;8.50;5.90;;;;;;;8.19;85.62;101732.80;102164;1319;60594;-76
2021/11/11 10:18:03;;;;;;;12.90;6.90;;;;;;;8.29;85.43;101732.26;102446;1318;74418;-79
2021/11/11 10:20:33;;;;;;;10.20;5.20;;;;;;;8.37;85.32;101724.55;102737;1319;69986;-79
2021/11/11 10:23:42;;;;;;;12.10;6.50;;;;;;;8.45;85.11;101724.88;102390;1318;73013;-76
2021/11/11 10:26:47;;;;;;;15.80;6.80;;;;;;;8.59;84.98;101720.77;102471;1318;62265;-77
2021/11/11 10:29:58;;;;;;;10.70;5.40;;;;;;;8.73;84.48;101715.87;102422;1321;60777;-80
2021/11/11 10:33:23;;;;;;;12.40;5.80;;;;;;;8.84;84.10;101718.59;102427;1319;74401;-76
2021/11/11 10:36:14;;;;;;;9.70;5.80;;;;;;;8.92;83.68;101713.81;102824;1318;71486;-78
2021/11/11 10:39:45;;;;;;;11.30;5.70;;;;;;;8.99;82.93;101708.78;102285;1318;73062;-78
2021/11/11 10:42:56;;;;;;;;;;;;;;;;;;;;;
2021/11/11 10:45:42;;;;;;;9.20;5.30;;;;;;;9.31;81.85;101703.71;102478;1319;61091;-76
2021/11/11 10:48:25;;;;;;;7.40;4.40;;;;;;;9.41;81.03;101699.27;102548;1319;74238;-80
2021/11/11 10:51:00;;;;;;;8.20;4.90;;;;;;;9.50;81.05;101697.92;102342;1318;70459;-77
2021/11/11 10:54:00;;;;;;;;;;;;;;;;;;;;;
2021/11/11 10:56:40;;;;;;;10.90;5.50;;;;;;;9.64;80.47;101691.26;102337;1319;63392;-76
2021/11/11 10:59:38;;;;;;;7.00;4.00;;;;;;;9.66;80.00;101689.00;102321;1318;60688;-80
2021/11/11 11:02:10;;;;;;;7.20;4.80;;;;;;;9.71;80.22;101687.63;102569;1322;75482;-77
2021/11/11 11:05:42;;;;;;;4.60;2.80;;;;;;;9.76;79.67;101681.35;102417;1318;72162;-77
2021/11/11 11:08:18;;;;;;;5.80;3.80;;;;;;;9.78;79.56;101685.52;102099;1321;74116;-79
2021/11/11 11:11:34;;;;;;;4.30;3.30;;;;;;;9.82;79.38;101684.86;102349;1320;61818;-77
2021/11/11 11:14:54;;;;;;;;;;;;;;;;;;;;;
2021/11/11 11:17:23;;;;;;;7.50;3.90;;;;;;;9.76;79.83;101679.19;102211;1318;75180;-76
2021/11/11 11:20:44;;;;;;;6.50;4.10;;;;;;;9.78;79.33;101677.76;102423;1318;71596;-77
2021/11/11 11:23:40;;;;;;;6.20;3.60;;;;;;;9.78;79.61;101674.22;102273;1317;73029;-76
2021/11/11 11:26:57;;;;;;;7.50;3.60;;;;;;;9.77;79.92;101677.12;102272;1320;63299;-77
2021/11/11 11:30:22;;;;;;;6.90;4.00;;;;;;;9.80;80.02;101678.84;102357;1319;60513;-75
2021/11/11 11:32:22;;;;;;;5.40;3.20;;;;;;;9.75;79.75;101680.88;102236;1318;71841;-76
2021/11/11 11:35:41;;;;;;;7.00;3.40;;;;;;;9.73;80.14;101681.94;102633;1319;72009;-77
2021/11/11 11:38:53;;;;;;;5.30;3.10;;;;;;;9.74;80.08;101686.29;102323;1319;73119;-76
2021/11/11 11:41:45;;;;;;;4.80;3.40;;;;;;;9.70;79.75;101690.06;102166;1321;62367;-76
2021/11/11 11:44:36;;;;;;;8.10;4.20;;;;;;;9.65;79.79;101691.95;102034;1321;60538;-79
2021/11/11 11:47:52;;;;;;;6.60;3.70;;;;;;;9.60;80.22;101692.55;102525;1322;74192;-78
2021/11/11 11:50:35;;;;;;;6.40;3.00;;;;;;;9.52;80.24;101690.09;101855;1322;72685;-77
2021/11/11 11:53:37;;;;;;;7.80;4.00;;;;;;;9.45;80.63;101687.93;102480;1321;72973;-76
2021/11/11 11:56:47;;;;;;;7.60;4.00;;;;;;;9.42;80.86;101689.10;102285;1321;63081;-78
2021/11/11 11:59:18;;;;;;;8.40;3.10;;;;;;;9.37;81.08;101683.05;102281;1321;60865;-77
2021/11/11 12:05:18;;;;;;;;;;;;;;;;;;;;;
2021/11/11 12:09:05;;;;;;;4.40;2.50;;;;;;;9.20;80.77;101683.89;102058;1322;72031;-79
2021/11/11 12:14:58;;;;;;;5.30;2.70;;;;;;;9.11;80.84;101687.55;102326;1318;60635;-80
2021/11/11 12:39:40;;;;;;;7.00;3.70;;;;;;;9.29;80.00;101669.32;102603;1318;72911;-79
2021/11/11 12:45:30;;;;;;;6.60;4.10;;;;;;;9.51;79.20;101665.27;102625;1321;61292;-76
2021/11/11 12:48:32;;;;;;;;;;;;;;;;;;;;;
2021/11/11 12:51:10;;;;;;;7.40;4.60;;;;;;;9.89;77.75;101656.23;102755;1321;71613;-79
2021/11/11 12:53:51;;;;;;;6.30;4.00;;;;;;;10.08;77.16;101656.75;102788;1318;72605;-80
2021/11/11 12:56:28;;;;;;;7.70;5.60;;;;;;;10.28;76.33;101656.59;102426;1319;60767;-79
2021/11/11 12:59:14;;;;;;;6.50;3.90;;;;;;;10.46;74.99;101657.80;102475;1318;60639;-75
2021/11/11 13:01:45;;;;;;;5.40;3.80;;;;;;;10.72;74.70;101655.48;102296;1318;74121;-76
2021/11/11 13:04:17;;;;;;;9.40;5.30;;;;;;;10.81;73.45;101653.48;102324;1318;72480;-77
2021/11/11 13:06:48;;;;;;;5.50;3.80;;;;;;;10.84;73.45;101650.34;102466;1319;72871;-77
2021/11/11 13:09:40;;;;;;;6.80;4.80;;;;;;;10.81;72.86;101652.09;102603;1317;60549;-79
2021/11/11 13:12:26;;;;;;;6.40;4.60;;;;;;;10.73;73.34;101651.85;102234;1318;60707;-75
2021/11/11 13:14:56;;;;;;;6.20;3.60;;;;;;;10.73;73.75;101655.34;102544;1315;74509;-78
2021/11/11 13:17:27;;;;;;;6.70;4.40;;;;;;;10.77;73.62;101650.73;102502;1321;71449;-75
2021/11/11 13:20:18;;;;;;;6.60;4.50;;;;;;;10.88;73.24;101649.42;102732;1317;73951;-79
2021/11/11 13:29:08;;;;;;;7.40;4.90;;;;;;;11.39;71.15;101653.48;102551;1322;71891;-79
2021/11/11 15:17:36;;;;;;;18.10;10.40;;;;;;;8.97;82.01;101642.81;101723;1324;73185;-79
2021/11/11 16:21:11;;;;;;;19.80;11.70;;;;;;;8.29;85.91;101661.97;102513;1324;61627;-76
2021/11/11 16:23:54;;;;;;;14.40;9.00;;;;;;;8.29;86.50;101662.25;102558;1319;76113;-76
2021/11/11 16:26:22;;;;;;;13.50;7.80;;;;;;;8.29;86.74;101665.30;102332;1321;72506;-78
2021/11/11 16:29:10;;;;;;;;;;;;;;;;;;;;;
2021/11/11 16:31:55;;;;;;;16.70;10.50;;;;;;;8.25;86.70;101670.25;102301;1318;63445;-76
2021/11/11 16:34:23;;;;;;;16.80;9.70;;;;;;;8.23;87.25;101674.27;102193;1318;61387;-79
2021/11/11 16:36:53;;;;;;;19.40;9.30;;;;;;;8.22;87.16;101673.89;102413;1318;76614;-76
2021/11/11 16:39:21;;;;;;;16.40;8.80;;;;;;;8.20;87.38;101677.55;102422;1318;72460;-76
2021/11/11 16:41:54;;;;;;;15.30;9.50;;;;;;;8.19;87.70;101675.52;102383;1319;73714;-80
2021/11/11 16:44:23;;;;;;;14.30;9.20;;;;;;;8.18;88.01;101672.96;102400;1321;61433;-77
2021/11/11 16:46:51;;;;;;;17.70;9.30;;;;;;;8.16;87.87;101670.81;102639;1322;60628;-76
2021/11/11 16:49:38;;;;;;;17.80;10.00;;;;;;;8.16;87.99;101674.38;102235;1324;75733;-79
2021/11/11 16:52:10;;;;;;;17.80;9.10;;;;;;;8.15;88.62;101672.98;102559;1318;73775;-78
2021/11/11 16:54:55;;;;;;;18.10;10.90;;;;;;;8.17;88.61;101681.13;102243;1318;73112;-76
2021/11/11 16:57:22;;;;;;;;;;;;;;;8.17;88.68;101678.70;102725;1319;62231;-80
2021/11/11 16:59:49;;;;;;;23.20;9.50;;;;;;;8.16;89.00;101682.25;102150;1324;62444;-77
2021/11/11 17:03:10;;;;;;;;;;;;;;;;;;;;;
2021/11/11 17:06:33;;;;;;;16.70;9.30;;;;;;;8.15;89.05;101688.02;103042;1324;72607;-81
2021/11/11 17:09:21;;;;;;;18.20;9.80;;;;;;;8.11;89.46;101690.63;103359;1318;73015;-80
2021/11/11 17:11:49;;;;;;;15.20;9.10;;;;;;;8.10;89.41;101686.36;103229;1324;62282;-80
2021/11/11 17:14:31;;;;;;;17.90;10.00;;;;;;;8.08;89.26;101693.92;103129;1319;61308;-83
2021/11/11 17:17:13;;;;;;;15.70;9.30;;;;;;;8.06;89.62;101697.42;103040;1322;74942;-81
2021/11/11 17:19:53;;;;;;;16.10;8.80;;;;;;;8.06;89.79;101699.21;103174;1319;72952;-79
2021/11/11 17:26:04;;;;;;;15.60;9.80;;;;;;;8.03;89.31;101699.66;103424;1318;61298;-81
2021/11/11 17:29:00;;;;;;;15.60;9.20;;;;;;;8.02;89.89;101702.23;103280;1319;61306;-79
2021/11/11 17:31:35;;;;;;;16.10;9.20;;;;;;;8.02;89.90;101703.56;103315;1320;74981;-81
2021/11/11 17:34:08;;;;;;;14.70;9.30;;;;;;;8.03;90.11;101707.59;103154;1322;71401;-80
2021/11/11 17:36:36;;;;;;;17.90;9.30;;;;;;;8.03;89.81;101708.76;103027;1320;73533;-80
2021/11/11 17:39:27;;;;;;;19.90;9.80;;;;;;;8.05;89.90;101708.29;102761;1318;62024;-81
2021/11/11 17:42:07;;;;;;;;;;;;;;;;;;;;;
2021/11/11 17:44:36;;;;;;;17.80;10.10;;;;;;;8.06;89.79;101715.45;103466;1319;75012;-80
2021/11/11 17:47:10;;;;;;;17.40;9.20;;;;;;;8.04;90.08;101716.83;102712;1318;71611;-80
2021/11/11 17:50:04;;;;;;;;;;;;;;;;;;;;;
2021/11/11 17:53:04;;;;;;;;;;;;;;;;;;;;;
2021/11/11 17:55:42;;;;;;;15.50;8.60;;;;;;;7.99;90.14;101720.61;103300;1320;61746;-79
2021/11/11 17:58:21;;;;;;;16.60;9.30;;;;;;;8.01;90.26;101724.67;102806;1318;74953;-80
2021/11/11 18:01:04;;;;;;;16.30;8.60;;;;;;;8.02;90.22;101720.52;103476;1318;72741;-79
2021/11/11 18:03:48;;;;;;;14.20;8.60;;;;;;;8.04;89.99;101722.27;103186;1319;73228;-79
2021/11/11 18:06:26;;;;;;;16.10;8.50;;;;;;;8.04;90.18;101722.63;102962;1322;61464;-80
2021/11/11 18:09:32;;;;;;;18.90;9.70;;;;;;;8.02;90.55;101723.54;103174;1320;61665;-80
2021/11/11 18:13:13;;;;;;;21.60;10.70;;;;;;;7.99;90.47;101723.09;103146;1320;76040;-80
2021/11/11 18:16:11;;;;;;;20.10;10.90;;;;;;;7.97;90.65;101726.55;103078;1324;71305;-81
2021/11/11 18:19:19;;;;;;;18.20;9.50;;;;;;;7.95;91.26;101725.50;103548;1324;73690;-81
2021/11/11 18:22:11;;;;;;;;;;;;;;;;;;;;;
2021/11/11 18:25:28;;;;;;;;;;;;;;;;;;;;;
2021/11/11 18:28:11;;;;;;;18.10;9.90;;;;;;;7.89;91.72;101721.59;103275;1316;75557;-80
2021/11/11 18:30:52;;;;;;;17.60;10.20;;;;;;;7.86;91.49;101718.52;103363;1319;72021;-80
2021/11/11 18:34:37;;;;;;;17.10;9.50;;;;;;;7.85;91.73;101715.80;103312;1322;74090;-82
2021/11/11 18:36:55;;;;;;;17.80;10.70;;;;;;;7.81;92.19;101717.91;103158;1319;61804;-80
2021/11/11 18:40:00;;;;;;;;;;;;;;;;;;;;;
2021/11/11 18:42:45;;;;;;;;;;;;;;;;;;;;;
2021/11/11 18:45:58;;;;;;;;;;;;;;;;;;;;;
2021/11/11 18:49:17;;;;;;;;;;;;;;;;;;;;;
2021/11/11 18:52:39;;;;;;;24.20;11.20;;;;;;;7.60;94.34;101724.11;102408;1330;62456;-80
2021/11/11 18:55:43;;;;;;;18.20;10.90;;;;;;;7.57;94.36;101727.20;102692;1330;61736;-82
2021/11/11 18:58:31;;;;;;;23.40;12.60;;;;;;;7.55;94.62;101725.08;102725;1324;76628;-79
2021/11/11 19:01:06;;;;;;;16.90;10.10;;;;;;;7.54;94.95;101724.41;102374;1330;72800;-79
2021/11/11 19:03:38;;;;;;;23.50;11.50;;;;;;;7.54;94.72;101722.29;102663;1330;71737;-80
2021/11/11 19:06:41;;;;;;;26.50;12.80;;;;;;;7.55;94.73;101722.60;101929;1330;62006;-79
2021/11/11 19:09:28;;;;;;;;;;;;;;;;;;;;;
2021/11/11 19:12:24;;;;;;;26.60;11.60;;;;;;;7.61;94.94;101719.61;102232;1323;74876;-79
2021/11/11 19:14:54;;;;;;;24.70;11.40;;;;;;;7.60;94.93;101716.88;102707;1318;72476;-80
2021/11/11 19:17:25;;;;;;;19.80;10.70;;;;;;;7.62;94.88;101719.91;103378;1318;72008;-80
2021/11/11 19:20:12;;;;;;;22.20;11.70;;;;;;;7.62;94.84;101719.69;103212;1319;61273;-79
2021/11/11 19:22:41;;;;;;;20.90;11.40;;;;;;;7.64;94.80;101720.41;103309;1318;61658;-78
2021/11/11 19:25:35;;;;;;;18.90;10.40;;;;;;;7.64;94.73;101717.80;102718;1319;76385;-80
2021/11/11 19:28:25;;;;;;;16.80;8.60;;;;;;;7.59;94.81;101718.34;102973;1319;73037;-81
2021/11/11 19:31:28;;;;;;;15.10;8.10;;;;;;;7.54;95.04;101718.79;103592;1318;73215;-79
2021/11/11 19:34:10;;;;;;;20.00;11.80;;;;;;;7.53;95.29;101723.31;103083;1317;61770;-79
2021/11/11 19:40:29;;;;;;;24.40;11.80;;;;;;;7.56;95.32;101729.87;102505;1326;73891;-79
2021/11/11 19:43:39;;;;;;;19.80;11.80;;;;;;;7.59;95.24;101731.07;103448;1321;73056;-81